createdAt,value
2022-11-05T00:00:36.213Z,4.80
2022-11-05T00:03:21.578Z,5.07
2022-11-05T00:06:09.593Z,5.07
2022-11-05T00:08:59.298Z,3.93
2022-11-05T00:11:45.934Z,4.67
2022-11-05T00:14:31.532Z,4.17
2022-11-05T00:16:58.439Z,4.13
2022-11-05T00:19:25.202Z,4.40
2022-11-05T00:22:10.495Z,4.13
2022-11-05T00:24:55.964Z,3.90
2022-11-05T00:27:25.674Z,5.07
2022-11-05T00:29:52.634Z,4.73
2022-11-05T00:32:19.358Z,4.37
2022-11-05T00:34:45.989Z,4.77
2022-11-05T00:37:12.574Z,3.70
2022-11-05T00:39:39.195Z,4.67
2022-11-05T00:42:24.495Z,3.40
2022-11-05T00:45:03.375Z,4.50
2022-11-05T00:47:51.739Z,3.50
2022-11-05T00:50:20.035Z,4.60
2022-11-05T00:57:05.565Z,3.27
2022-11-05T00:59:32.173Z,3.07
2022-11-05T01:01:59.299Z,3.33
2022-11-05T01:04:26.109Z,3.30
2022-11-05T01:06:52.673Z,2.90
2022-11-05T01:09:19.346Z,3.37
2022-11-05T01:11:46.315Z,3.00
2022-11-05T01:14:15.867Z,3.73
2022-11-05T01:16:42.647Z,3.20
2022-11-05T01:19:10.503Z,3.40
2022-11-05T01:21:37.404Z,2.73
2022-11-05T01:24:04.572Z,2.70
2022-11-05T01:26:31.216Z,2.97
2022-11-05T01:29:00.493Z,3.50
2022-11-05T01:31:28.528Z,3.50
2022-11-05T01:33:55.236Z,3.60
2022-11-05T01:36:21.845Z,3.07
2022-11-05T01:38:48.437Z,3.90
2022-11-05T01:41:15.062Z,3.40
2022-11-05T01:43:59.918Z,3.70
2022-11-05T01:46:40.239Z,3.73
2022-11-05T01:49:18.795Z,4.37
2022-11-05T01:51:46.056Z,4.37
2022-11-05T01:54:16.652Z,4.10
2022-11-05T01:56:49.499Z,4.87
2022-11-05T01:59:28.188Z,4.50
2022-11-05T02:02:00.231Z,4.87
2022-11-05T02:04:35.790Z,3.93
2022-11-05T02:07:09.280Z,4.73
2022-11-05T02:09:43.683Z,3.80
2022-11-05T02:12:12.356Z,3.57
2022-11-05T02:14:39.019Z,4.17
2022-11-05T02:17:14.734Z,4.10
2022-11-05T02:20:18.642Z,4.37
2022-11-05T02:23:31.285Z,4.43
2022-11-05T02:26:20.046Z,4.80
2022-11-05T02:29:25.791Z,4.97
2022-11-05T02:31:59.123Z,4.27
2022-11-05T02:34:54.685Z,4.97
2022-11-05T02:37:40.250Z,5.50
2022-11-05T02:40:25.626Z,4.83
2022-11-05T02:43:03.442Z,4.60
2022-11-05T02:45:33.008Z,4.40
2022-11-05T02:48:37.031Z,4.40
2022-11-05T02:51:12.359Z,5.37
2022-11-05T02:53:48.491Z,5.23
2022-11-05T02:56:36.828Z,5.27
2022-11-05T02:59:03.508Z,6.17
2022-11-05T03:01:30.255Z,7.77
2022-11-05T03:04:03.599Z,6.70
2022-11-05T03:07:12.362Z,7.80
2022-11-05T03:09:57.649Z,7.03
2022-11-05T03:13:03.727Z,6.50
2022-11-05T03:15:47.135Z,7.27
2022-11-05T03:18:35.333Z,6.57
2022-11-05T03:21:13.928Z,6.43
2022-11-05T03:23:56.075Z,6.80
2022-11-05T03:27:05.066Z,6.77
2022-11-05T03:29:41.189Z,6.70
2022-11-05T03:32:09.579Z,6.63
2022-11-05T03:34:42.379Z,6.57
2022-11-05T03:37:10.715Z,7.60
2022-11-05T03:39:43.264Z,6.43
2022-11-05T03:42:15.727Z,5.90
2022-11-05T03:44:58.404Z,6.70
2022-11-05T03:47:35.498Z,5.97
2022-11-05T03:50:13.040Z,5.93
2022-11-05T03:52:48.921Z,5.97
2022-11-05T03:55:22.232Z,5.70
2022-11-05T03:57:53.612Z,5.13
2022-11-05T04:00:21.341Z,5.47
2022-11-05T04:02:48.080Z,5.03
2022-11-05T04:05:14.914Z,4.90
2022-11-05T04:08:02.840Z,5.40
2022-11-05T04:10:48.099Z,4.33
2022-11-05T04:13:26.798Z,3.53
2022-11-05T04:16:13.571Z,3.20
2022-11-05T04:18:40.727Z,4.20
2022-11-05T04:21:27.490Z,3.40
2022-11-05T04:24:09.493Z,3.50
2022-11-05T04:26:41.881Z,3.23
2022-11-05T04:29:27.216Z,3.00
2022-11-05T04:31:54.515Z,3.00
2022-11-05T04:34:24.656Z,3.67
2022-11-05T04:36:53.020Z,3.13
2022-11-05T04:39:20.596Z,3.70
2022-11-05T04:41:50.301Z,2.77
2022-11-05T04:44:17.201Z,3.53
2022-11-05T04:46:43.918Z,3.57
2022-11-05T04:49:10.541Z,3.50
2022-11-05T04:51:37.153Z,3.93
2022-11-05T04:54:03.919Z,4.03
2022-11-05T04:56:30.599Z,3.20
2022-11-05T04:58:57.178Z,3.83
2022-11-05T05:01:25.390Z,3.77
2022-11-05T05:03:53.841Z,3.43
2022-11-05T05:06:21.401Z,3.33
2022-11-05T05:08:49.788Z,3.07
2022-11-05T05:11:20.144Z,3.30
2022-11-05T05:13:48.297Z,2.70
2022-11-05T05:16:24.420Z,3.17
2022-11-05T05:18:52.066Z,3.90
2022-11-05T05:21:38.923Z,3.30
2022-11-05T05:24:08.612Z,3.30
2022-11-05T05:26:40.877Z,3.00
2022-11-05T05:29:08.238Z,3.43
2022-11-05T05:31:35.031Z,3.00
2022-11-05T05:34:02.040Z,3.30
2022-11-05T05:36:28.664Z,2.43
2022-11-05T05:38:55.263Z,3.07
2022-11-05T05:41:21.926Z,2.83
2022-11-05T05:43:48.615Z,2.87
2022-11-05T05:46:17.617Z,2.53
2022-11-05T05:48:48.981Z,2.70
2022-11-05T05:51:15.678Z,3.67
2022-11-05T05:53:42.290Z,3.23
2022-11-05T05:56:08.908Z,2.90
2022-11-05T05:58:37.752Z,2.90
2022-11-05T06:01:07.990Z,3.27
2022-11-05T06:03:35.114Z,2.70
2022-11-05T06:06:03.501Z,2.93
2022-11-05T06:08:30.683Z,3.87
2022-11-05T06:10:58.142Z,3.53
2022-11-05T06:13:25.649Z,3.60
2022-11-05T06:15:52.546Z,3.70
2022-11-05T06:18:19.691Z,3.70
2022-11-05T06:20:46.296Z,3.20
2022-11-05T06:23:13.303Z,3.10
2022-11-05T06:25:41.576Z,2.70
2022-11-05T06:28:08.285Z,2.97
2022-11-05T06:30:35.076Z,3.13
2022-11-05T06:33:05.651Z,3.50
2022-11-05T06:35:32.485Z,3.50
2022-11-05T06:38:01.826Z,3.50
2022-11-05T06:40:29.553Z,3.80
2022-11-05T06:42:56.196Z,3.47
2022-11-05T06:45:22.857Z,4.07
2022-11-05T06:47:55.267Z,4.27
2022-11-05T06:50:21.901Z,4.13
2022-11-05T06:52:59.838Z,4.17
2022-11-05T06:55:28.782Z,4.67
2022-11-05T06:57:56.061Z,4.43
2022-11-05T07:00:23.693Z,4.60
2022-11-05T07:02:50.360Z,4.87
2022-11-05T07:05:17.627Z,4.70
2022-11-05T07:07:45.598Z,4.90
2022-11-05T07:10:15.406Z,5.10
2022-11-05T07:12:42.408Z,5.23
2022-11-05T07:15:10.737Z,5.47
2022-11-05T07:17:37.545Z,5.07
2022-11-05T07:20:05.942Z,5.23
2022-11-05T07:22:33.213Z,5.27
2022-11-05T07:24:59.918Z,4.60
2022-11-05T07:27:26.689Z,5.33
2022-11-05T07:29:53.386Z,5.03
2022-11-05T07:32:20.027Z,4.87
2022-11-05T07:34:46.695Z,5.43
2022-11-05T07:37:13.436Z,5.70
2022-11-05T07:39:40.284Z,6.43
2022-11-05T07:42:06.963Z,5.23
2022-11-05T07:44:33.960Z,5.57
2022-11-05T07:47:00.581Z,5.90
2022-11-05T07:49:27.234Z,5.43
2022-11-05T07:51:53.875Z,6.07
2022-11-05T07:54:20.508Z,6.03
2022-11-05T07:56:47.811Z,5.73
2022-11-05T07:59:14.405Z,5.77
2022-11-05T08:01:41.277Z,5.50
2022-11-05T08:04:07.952Z,5.60
2022-11-05T08:06:34.649Z,5.17
2022-11-05T08:09:01.246Z,5.57
2022-11-05T08:11:27.915Z,4.93
2022-11-05T08:13:54.623Z,5.83
2022-11-05T08:16:21.195Z,5.60
2022-11-05T08:18:48.556Z,4.73
2022-11-05T08:21:15.317Z,6.30
2022-11-05T08:23:42.902Z,6.30
2022-11-05T08:26:09.985Z,8.47
2022-11-05T08:28:36.616Z,14.40
2022-11-05T08:31:03.246Z,7.20
2022-11-05T08:33:31.427Z,6.70
2022-11-05T08:36:02.877Z,6.07
2022-11-05T08:38:29.955Z,6.77
2022-11-05T08:40:57.873Z,6.27
2022-11-05T08:43:24.431Z,5.40
2022-11-05T08:45:51.084Z,5.70
2022-11-05T08:48:19.584Z,6.23
2022-11-05T08:50:48.437Z,5.97
2022-11-05T08:53:15.972Z,6.03
2022-11-05T08:55:43.931Z,9.33
2022-11-05T08:58:12.948Z,7.77
2022-11-05T09:00:40.082Z,7.13
2022-11-05T09:03:08.925Z,7.37
2022-11-05T09:05:38.736Z,6.47
2022-11-05T09:08:06.564Z,5.93
2022-11-05T09:10:33.398Z,6.53
2022-11-05T09:13:00.153Z,6.00
2022-11-05T09:15:26.795Z,6.03
2022-11-05T09:17:53.630Z,5.77
2022-11-05T09:20:20.393Z,7.07
2022-11-05T09:22:47.813Z,5.80
2022-11-05T09:25:15.898Z,5.30
2022-11-05T09:27:43.610Z,5.77
2022-11-05T09:30:11.865Z,5.97
2022-11-05T09:32:38.795Z,6.00
2022-11-05T09:35:06.533Z,6.80
2022-11-05T09:37:33.216Z,5.60
2022-11-05T09:40:00.058Z,6.13
2022-11-05T09:42:40.401Z,6.40
2022-11-05T09:45:20.365Z,6.47
2022-11-05T09:47:56.135Z,5.80
2022-11-05T09:50:33.648Z,5.83
2022-11-05T09:53:01.645Z,5.97
2022-11-05T09:55:38.571Z,5.50
2022-11-05T09:58:16.475Z,5.83
2022-11-05T10:00:44.530Z,8.77
2022-11-05T10:03:15.464Z,12.23
2022-11-05T10:05:43.033Z,6.90
2022-11-05T10:08:18.074Z,8.87
2022-11-05T10:10:49.809Z,6.87
2022-11-05T10:13:25.395Z,9.63
2022-11-05T10:16:00.128Z,5.90
2022-11-05T10:18:34.283Z,5.97
2022-11-05T10:21:01.269Z,5.53
2022-11-05T10:23:28.606Z,7.17
2022-11-05T10:25:58.680Z,10.13
2022-11-05T10:28:27.904Z,7.40
2022-11-05T10:31:00.773Z,5.67
2022-11-05T10:33:50.490Z,6.03
2022-11-05T10:36:31.912Z,8.10
2022-11-05T10:39:19.560Z,9.67
2022-11-05T10:41:54.150Z,7.83
2022-11-05T10:44:44.114Z,7.20
2022-11-05T10:47:43.635Z,8.57
2022-11-05T10:50:17.051Z,6.77
2022-11-05T10:53:02.586Z,6.57
2022-11-05T10:55:32.685Z,8.13
2022-11-05T10:58:15.758Z,6.17
2022-11-05T11:00:45.170Z,6.00
2022-11-05T11:03:53.229Z,7.77
2022-11-05T11:06:27.251Z,6.37
2022-11-05T11:08:56.644Z,7.00
2022-11-05T11:11:34.044Z,6.77
2022-11-05T11:14:14.036Z,6.83
2022-11-05T11:16:46.490Z,7.87
2022-11-05T11:19:33.948Z,8.30
2022-11-05T11:22:03.546Z,7.77
2022-11-05T11:24:51.861Z,6.77
2022-11-05T11:27:23.940Z,7.33
2022-11-05T11:30:04.975Z,8.10
2022-11-05T11:32:39.274Z,6.90
2022-11-05T11:35:17.921Z,7.87
2022-11-05T11:37:46.180Z,6.97
2022-11-05T11:40:16.920Z,6.83
2022-11-05T11:42:54.712Z,6.87
2022-11-05T11:45:54.871Z,6.93
2022-11-05T11:48:29.608Z,7.20
2022-11-05T11:50:57.956Z,6.77
2022-11-05T11:53:28.643Z,6.50
2022-11-05T11:55:55.216Z,6.27
2022-11-05T11:58:23.482Z,5.47
2022-11-05T12:00:56.689Z,5.00
2022-11-05T12:03:33.059Z,5.43
2022-11-05T12:06:20.681Z,5.77
2022-11-05T12:09:21.088Z,10.20
2022-11-05T12:12:21.024Z,6.50
2022-11-05T12:14:53.376Z,9.73
2022-11-05T12:17:29.089Z,8.90
2022-11-05T12:20:20.353Z,5.67
2022-11-05T12:23:08.817Z,6.87
2022-11-05T12:25:51.683Z,5.93
2022-11-05T12:28:36.253Z,6.90
2022-11-05T12:31:19.717Z,8.67
2022-11-05T12:34:03.100Z,3.10
2022-11-05T12:36:38.486Z,4.30
2022-11-05T12:39:26.810Z,2.97
2022-11-05T12:42:01.121Z,3.27
2022-11-05T12:44:48.871Z,3.30
2022-11-05T12:47:37.994Z,3.90
2022-11-05T12:50:13.518Z,3.23
2022-11-05T12:52:55.125Z,2.50
2022-11-05T12:55:25.221Z,2.57
2022-11-05T12:57:54.719Z,3.43
2022-11-05T13:00:24.363Z,2.93
2022-11-05T13:02:59.981Z,2.70
2022-11-05T13:05:36.213Z,2.43
2022-11-05T13:08:21.598Z,2.90
2022-11-05T13:11:03.400Z,2.50
2022-11-05T13:13:43.885Z,4.30
2022-11-05T13:16:24.137Z,6.40
2022-11-05T13:18:54.990Z,4.60
2022-11-05T13:21:25.093Z,3.40
2022-11-05T13:24:07.018Z,3.17
2022-11-05T13:26:43.363Z,2.70
2022-11-05T13:29:34.321Z,2.57
2022-11-05T13:32:22.905Z,2.47
2022-11-05T13:34:49.779Z,1.60
2022-11-05T13:37:42.169Z,1.60
2022-11-05T13:40:13.204Z,7.07
2022-11-05T13:43:02.070Z,2.47
2022-11-05T13:45:47.659Z,2.63
2022-11-05T13:48:36.964Z,3.23
2022-11-05T13:51:09.439Z,3.53
2022-11-05T13:53:54.420Z,3.30
2022-11-05T13:56:45.070Z,3.53
2022-11-05T13:59:36.119Z,5.83
2022-11-05T14:02:16.627Z,10.17
2022-11-05T14:05:00.534Z,8.37
2022-11-05T14:07:33.584Z,24.33
2022-11-05T14:10:34.780Z,9.63
2022-11-05T14:13:25.273Z,7.97
2022-11-05T14:16:04.129Z,9.47
2022-11-05T14:18:43.081Z,6.57
2022-11-05T14:21:27.798Z,7.27
2022-11-05T14:24:24.503Z,14.90
2022-11-05T14:27:03.343Z,13.00
2022-11-05T14:29:39.060Z,12.97
2022-11-05T14:32:18.713Z,11.27
2022-11-05T14:35:02.121Z,8.40
2022-11-05T14:37:40.979Z,8.70
2022-11-05T14:40:23.436Z,6.37
2022-11-05T14:43:02.903Z,8.50
2022-11-05T14:45:30.882Z,3.73
2022-11-05T14:48:43.786Z,7.43
2022-11-05T14:51:30.914Z,10.50
2022-11-05T14:54:04.631Z,8.57
2022-11-05T14:56:43.455Z,9.90
2022-11-05T14:59:22.164Z,7.93
2022-11-05T15:01:48.813Z,7.87
2022-11-05T15:04:40.492Z,10.40
2022-11-05T15:07:07.106Z,7.57
2022-11-05T15:09:40.355Z,5.97
2022-11-05T15:12:37.507Z,8.00
2022-11-05T15:15:21.557Z,8.33
2022-11-05T15:17:58.282Z,10.20
2022-11-05T15:20:39.641Z,8.03
2022-11-05T15:23:11.828Z,7.03
2022-11-05T15:26:01.480Z,7.30
2022-11-05T15:28:33.893Z,9.33
2022-11-05T15:31:13.866Z,14.70
2022-11-05T15:33:41.991Z,12.13
2022-11-05T15:36:29.382Z,13.13
2022-11-05T15:39:23.347Z,10.67
2022-11-05T15:41:44.639Z,11.27
2022-11-05T15:44:29.924Z,7.60
2022-11-05T15:47:25.978Z,10.17
2022-11-05T15:50:17.316Z,10.33
2022-11-05T15:52:53.822Z,10.67
2022-11-05T15:55:25.749Z,10.10
2022-11-05T15:57:59.252Z,9.80
2022-11-05T16:00:28.300Z,10.47
2022-11-05T16:02:59.320Z,11.33
2022-11-05T16:05:28.425Z,10.20
2022-11-05T16:07:58.373Z,13.93
2022-11-05T16:10:30.875Z,9.63
2022-11-05T16:12:57.598Z,9.40
2022-11-05T16:15:29.389Z,5.53
2022-11-05T16:18:00.673Z,5.37
2022-11-05T16:20:32.208Z,5.43
2022-11-05T16:23:02.571Z,4.50
2022-11-05T16:25:31.730Z,6.80
2022-11-05T16:27:59.797Z,7.60
2022-11-05T16:30:26.892Z,5.87
2022-11-05T16:32:54.319Z,5.03
2022-11-05T16:35:23.492Z,6.00
2022-11-05T16:37:52.444Z,6.63
2022-11-05T16:40:22.632Z,5.97
2022-11-05T16:42:51.491Z,5.87
2022-11-05T16:45:20.859Z,6.37
2022-11-05T16:47:48.217Z,5.33
2022-11-05T16:50:20.159Z,6.00
2022-11-05T16:52:47.317Z,6.37
2022-11-05T16:55:15.216Z,6.50
2022-11-05T16:57:44.454Z,6.30
2022-11-05T17:00:15.574Z,5.73
2022-11-05T17:02:42.995Z,6.47
2022-11-05T17:05:22.081Z,5.37
2022-11-05T17:07:48.830Z,5.70
2022-11-05T17:10:15.899Z,5.60
2022-11-05T17:12:43.313Z,6.10
2022-11-05T17:15:24.184Z,5.00
2022-11-05T17:17:52.959Z,4.97
2022-11-05T17:20:39.768Z,6.70
2022-11-05T17:23:09.650Z,6.73
2022-11-05T17:25:36.803Z,6.63
2022-11-05T17:28:03.812Z,8.63
2022-11-05T17:30:30.884Z,8.70
2022-11-05T17:32:57.672Z,7.57
2022-11-05T17:35:24.435Z,7.00
2022-11-05T17:37:51.082Z,5.37
2022-11-05T17:40:20.417Z,6.13
2022-11-05T17:42:47.060Z,6.43
2022-11-05T17:45:14.136Z,6.90
2022-11-05T17:47:42.087Z,5.77
2022-11-05T17:50:11.084Z,5.33
2022-11-05T17:52:38.426Z,6.03
2022-11-05T17:55:07.129Z,5.23
2022-11-05T17:57:33.742Z,5.50
2022-11-05T18:00:00.312Z,6.87
2022-11-05T18:02:29.449Z,5.63
2022-11-05T18:04:56.230Z,4.90
2022-11-05T18:07:22.784Z,5.03
2022-11-05T18:09:49.411Z,5.37
2022-11-05T18:12:16.090Z,5.37
2022-11-05T18:14:42.719Z,5.27
2022-11-05T18:17:09.338Z,5.53
2022-11-05T18:19:38.208Z,6.47
2022-11-05T18:22:04.981Z,4.83
2022-11-05T18:24:32.164Z,5.97
2022-11-05T18:26:59.115Z,4.77
2022-11-05T18:29:25.892Z,5.23
2022-11-05T18:31:52.513Z,5.73
2022-11-05T18:34:19.137Z,7.03
2022-11-05T18:36:45.844Z,4.57
2022-11-05T18:39:12.506Z,4.47
2022-11-05T18:41:39.203Z,5.23
2022-11-05T18:44:06.303Z,5.80
2022-11-05T18:46:57.020Z,5.90
2022-11-05T18:49:20.924Z,5.20
2022-11-05T18:51:47.621Z,5.37
2022-11-05T18:54:14.455Z,4.60
2022-11-05T18:56:45.306Z,4.80
2022-11-05T18:59:35.032Z,4.23
2022-11-05T19:01:59.881Z,5.20
2022-11-05T19:04:26.971Z,6.17
2022-11-05T19:06:53.664Z,4.60
2022-11-05T19:09:20.818Z,5.03
2022-11-05T19:11:47.527Z,5.13
2022-11-05T19:14:14.130Z,4.30
2022-11-05T19:16:40.815Z,5.17
2022-11-05T19:19:07.488Z,4.70
2022-11-05T19:21:34.180Z,4.27
2022-11-05T19:24:03.798Z,4.30
2022-11-05T19:26:30.872Z,4.93
2022-11-05T19:28:59.459Z,6.53
2022-11-05T19:31:26.729Z,5.33
2022-11-05T19:33:54.491Z,7.17
2022-11-05T19:36:23.360Z,5.50
2022-11-05T19:38:56.222Z,6.63
2022-11-05T19:41:23.480Z,7.97
2022-11-05T19:43:50.660Z,7.17
2022-11-05T19:46:19.331Z,5.67
2022-11-05T19:48:46.683Z,5.37
2022-11-05T19:51:16.201Z,6.20
2022-11-05T19:53:43.620Z,5.20
2022-11-05T19:56:17.420Z,4.97
2022-11-05T19:58:44.904Z,5.80
2022-11-05T20:01:12.728Z,7.47
2022-11-05T20:03:39.946Z,10.83
2022-11-05T20:06:09.624Z,7.43
2022-11-05T20:08:47.833Z,6.77
2022-11-05T20:11:23.553Z,8.57
2022-11-05T20:13:50.225Z,7.13
2022-11-05T20:16:21.973Z,7.83
2022-11-05T20:18:48.974Z,7.90
2022-11-05T20:21:15.716Z,8.63
2022-11-05T20:23:42.763Z,10.13
2022-11-05T20:26:10.322Z,8.07
2022-11-05T20:28:38.197Z,8.30
2022-11-05T20:31:10.157Z,5.97
2022-11-05T20:33:37.392Z,6.00
2022-11-05T20:36:07.914Z,6.83
2022-11-05T20:38:34.625Z,8.70
2022-11-05T20:41:06.821Z,5.83
2022-11-05T20:43:33.933Z,6.60
2022-11-05T20:46:00.660Z,8.67
2022-11-05T20:48:31.021Z,9.47
2022-11-05T20:50:57.827Z,9.17
2022-11-05T20:53:24.511Z,8.80
2022-11-05T20:55:51.099Z,8.33
2022-11-05T20:58:18.376Z,8.77
2022-11-05T21:00:51.204Z,7.80
2022-11-05T21:03:19.113Z,9.93
2022-11-05T21:05:47.181Z,8.60
2022-11-05T21:08:14.600Z,8.37
2022-11-05T21:10:44.841Z,8.37
2022-11-05T21:13:15.288Z,8.10
2022-11-05T21:15:50.168Z,9.17
2022-11-05T21:18:18.132Z,15.10
2022-11-05T21:20:46.059Z,13.57
2022-11-05T21:23:13.594Z,17.20
2022-11-05T21:25:41.595Z,14.03
2022-11-05T21:28:10.317Z,8.27
2022-11-05T21:30:38.828Z,8.30
2022-11-05T21:33:05.954Z,8.23
2022-11-05T21:35:32.835Z,8.73
2022-11-05T21:38:00.006Z,10.80
2022-11-05T21:40:26.774Z,9.47
2022-11-05T21:42:53.311Z,10.70
2022-11-05T21:45:19.887Z,10.73
2022-11-05T21:47:46.454Z,11.30
2022-11-05T21:50:15.197Z,8.33
2022-11-05T21:53:02.032Z,9.73
2022-11-05T21:55:47.273Z,14.77
2022-11-05T21:58:34.731Z,10.87
2022-11-05T22:01:02.360Z,8.43
2022-11-05T22:03:29.970Z,9.67
2022-11-05T22:05:57.036Z,10.27
2022-11-05T22:08:23.736Z,8.50
2022-11-05T22:10:50.392Z,7.87
2022-11-05T22:13:16.971Z,6.87
2022-11-05T22:15:43.618Z,11.87
2022-11-05T22:18:10.688Z,10.77
2022-11-05T22:20:38.978Z,10.57
2022-11-05T22:23:10.870Z,10.67
2022-11-05T22:25:38.071Z,10.93
2022-11-05T22:28:04.853Z,7.87
2022-11-05T22:30:36.245Z,8.37
2022-11-05T22:33:02.861Z,9.07
2022-11-05T22:35:29.518Z,7.50
2022-11-05T22:37:56.111Z,6.57
2022-11-05T22:40:24.080Z,8.60
2022-11-05T22:42:50.893Z,7.93
2022-11-05T22:45:17.480Z,7.80
2022-11-05T22:47:44.092Z,7.43
2022-11-05T22:50:11.217Z,8.43
2022-11-05T22:52:37.887Z,7.83
2022-11-05T22:55:06.136Z,7.07
2022-11-05T22:57:32.967Z,8.00
2022-11-05T22:59:59.558Z,7.87
2022-11-05T23:02:26.267Z,7.20
2022-11-05T23:04:53.060Z,6.83
2022-11-05T23:07:38.215Z,6.90
2022-11-05T23:10:23.783Z,8.80
2022-11-05T23:12:50.351Z,8.53
2022-11-05T23:15:35.285Z,8.13
2022-11-05T23:18:20.603Z,7.30
2022-11-05T23:21:05.916Z,7.40
2022-11-05T23:23:51.187Z,7.50
2022-11-05T23:26:36.447Z,6.87
2022-11-05T23:29:03.378Z,8.13
2022-11-05T23:31:48.848Z,9.33
2022-11-05T23:34:15.555Z,7.90
2022-11-05T23:37:01.038Z,8.37
2022-11-05T23:39:27.849Z,8.27
2022-11-05T23:42:12.946Z,8.33
2022-11-05T23:44:58.154Z,7.50
2022-11-05T23:47:43.429Z,9.47
2022-11-05T23:50:10.029Z,9.57
2022-11-05T23:52:36.592Z,8.77
2022-11-05T23:55:03.644Z,7.77
2022-11-05T23:57:30.394Z,8.97
2022-11-05T23:59:57.111Z,8.20
